sensor_id;sensor_type;location;lat;lon;timestamp;pressure;altitude;pressure_sealevel;temperature;humidity
21817;BME280;13247;47.504;7.382;2024-01-30T00:02:32;98801.06;;;3.95;100.00
21817;BME280;13247;47.504;7.382;2024-01-30T00:05:17;98798.19;;;3.80;100.00
21817;BME280;13247;47.504;7.382;2024-01-30T00:08:01;98800.31;;;4.01;100.00
21817;BME280;13247;47.504;7.382;2024-01-30T00:10:46;98795.13;;;4.01;100.00
21817;BME280;13247;47.504;7.382;2024-01-30T00:13:30;98792.03;;;4.22;100.00
21817;BME280;13247;47.504;7.382;2024-01-30T00:16:24;98790.91;;;4.08;100.00
21817;BME280;13247;47.504;7.382;2024-01-30T00:19:09;98796.06;;;4.05;100.00
21817;BME280;13247;47.504;7.382;2024-01-30T00:21:54;98791.69;;;4.02;100.00
21817;BME280;13247;47.504;7.382;2024-01-30T00:24:38;98795.16;;;4.03;100.00
21817;BME280;13247;47.504;7.382;2024-01-30T00:27:23;98798.56;;;4.00;100.00
21817;BME280;13247;47.504;7.382;2024-01-30T00:30:08;98788.47;;;3.67;100.00
21817;BME280;13247;47.504;7.382;2024-01-30T00:32:54;98801.38;;;3.66;100.00
21817;BME280;13247;47.504;7.382;2024-01-30T00:35:39;98801.44;;;3.67;100.00
21817;BME280;13247;47.504;7.382;2024-01-30T00:38:23;98795.47;;;3.73;100.00
21817;BME280;13247;47.504;7.382;2024-01-30T00:41:11;98800.69;;;3.74;100.00
21817;BME280;13247;47.504;7.382;2024-01-30T00:43:56;98793.81;;;3.33;100.00
21817;BME280;13247;47.504;7.382;2024-01-30T00:46:40;98804.78;;;3.20;100.00
21817;BME280;13247;47.504;7.382;2024-01-30T00:49:25;98795.34;;;3.24;100.00
21817;BME280;13247;47.504;7.382;2024-01-30T00:52:10;98800.16;;;3.47;100.00
21817;BME280;13247;47.504;7.382;2024-01-30T00:54:54;98802.84;;;3.53;100.00
21817;BME280;13247;47.504;7.382;2024-01-30T00:57:39;98804.66;;;3.57;100.00
21817;BME280;13247;47.504;7.382;2024-01-30T01:00:23;98804.13;;;3.32;100.00
21817;BME280;13247;47.504;7.382;2024-01-30T01:03:13;98808.38;;;3.27;100.00
21817;BME280;13247;47.504;7.382;2024-01-30T01:05:58;98812.44;;;3.15;100.00
21817;BME280;13247;47.504;7.382;2024-01-30T01:08:43;98824.06;;;2.94;100.00
21817;BME280;13247;47.504;7.382;2024-01-30T01:11:27;98820.09;;;3.09;100.00
21817;BME280;13247;47.504;7.382;2024-01-30T01:14:12;98816.16;;;3.27;100.00
21817;BME280;13247;47.504;7.382;2024-01-30T01:16:56;98818.75;;;3.28;100.00
21817;BME280;13247;47.504;7.382;2024-01-30T01:19:41;98814.50;;;3.32;100.00
21817;BME280;13247;47.504;7.382;2024-01-30T01:22:26;98819.69;;;3.32;100.00
21817;BME280;13247;47.504;7.382;2024-01-30T01:25:10;98817.28;;;3.39;100.00
21817;BME280;13247;47.504;7.382;2024-01-30T01:27:55;98812.91;;;2.98;100.00
21817;BME280;13247;47.504;7.382;2024-01-30T01:30:40;98818.44;;;3.13;100.00
21817;BME280;13247;47.504;7.382;2024-01-30T01:33:24;98817.84;;;3.26;100.00
21817;BME280;13247;47.504;7.382;2024-01-30T01:36:09;98810.97;;;3.28;100.00
21817;BME280;13247;47.504;7.382;2024-01-30T01:38:53;98810.06;;;3.26;100.00
21817;BME280;13247;47.504;7.382;2024-01-30T01:41:38;98810.28;;;3.35;100.00
21817;BME280;13247;47.504;7.382;2024-01-30T01:44:23;98796.41;;;3.33;100.00
21817;BME280;13247;47.504;7.382;2024-01-30T01:47:07;98804.91;;;3.26;100.00
21817;BME280;13247;47.504;7.382;2024-01-30T01:49:52;98798.72;;;3.19;100.00
21817;BME280;13247;47.504;7.382;2024-01-30T01:52:38;98804.22;;;3.35;100.00
21817;BME280;13247;47.504;7.382;2024-01-30T01:55:23;98791.16;;;3.30;100.00
21817;BME280;13247;47.504;7.382;2024-01-30T01:58:11;98796.13;;;3.19;100.00
21817;BME280;13247;47.504;7.382;2024-01-30T02:00:58;98797.09;;;3.25;100.00
21817;BME280;13247;47.504;7.382;2024-01-30T02:03:44;98800.41;;;3.19;100.00
21817;BME280;13247;47.504;7.382;2024-01-30T02:06:29;98807.41;;;2.83;100.00
21817;BME280;13247;47.504;7.382;2024-01-30T02:09:13;98806.78;;;2.93;100.00
21817;BME280;13247;47.504;7.382;2024-01-30T02:11:58;98808.75;;;3.04;100.00
21817;BME280;13247;47.504;7.382;2024-01-30T02:14:46;98799.38;;;3.09;100.00
21817;BME280;13247;47.504;7.382;2024-01-30T02:17:31;98795.63;;;2.97;100.00
21817;BME280;13247;47.504;7.382;2024-01-30T02:20:16;98810.09;;;2.87;100.00
21817;BME280;13247;47.504;7.382;2024-01-30T02:23:01;98801.47;;;2.87;100.00
21817;BME280;13247;47.504;7.382;2024-01-30T02:25:46;98804.19;;;2.93;100.00
21817;BME280;13247;47.504;7.382;2024-01-30T02:28:32;98800.16;;;3.07;100.00
21817;BME280;13247;47.504;7.382;2024-01-30T02:31:16;98795.41;;;2.88;100.00
21817;BME280;13247;47.504;7.382;2024-01-30T02:34:01;98798.91;;;2.90;100.00
21817;BME280;13247;47.504;7.382;2024-01-30T02:36:46;98803.28;;;2.91;100.00
21817;BME280;13247;47.504;7.382;2024-01-30T02:39:31;98801.63;;;2.94;100.00
21817;BME280;13247;47.504;7.382;2024-01-30T02:42:16;98800.69;;;2.91;100.00
21817;BME280;13247;47.504;7.382;2024-01-30T02:45:00;98798.19;;;2.95;100.00
21817;BME280;13247;47.504;7.382;2024-01-30T02:47:46;98805.81;;;2.89;100.00
21817;BME280;13247;47.504;7.382;2024-01-30T02:50:30;98804.22;;;2.96;100.00
21817;BME280;13247;47.504;7.382;2024-01-30T02:53:15;98802.47;;;2.93;100.00
21817;BME280;13247;47.504;7.382;2024-01-30T02:56:00;98799.69;;;2.86;100.00
21817;BME280;13247;47.504;7.382;2024-01-30T02:58:45;98805.91;;;2.94;100.00
21817;BME280;13247;47.504;7.382;2024-01-30T03:01:30;98795.28;;;2.80;100.00
21817;BME280;13247;47.504;7.382;2024-01-30T03:04:16;98794.75;;;2.96;100.00
21817;BME280;13247;47.504;7.382;2024-01-30T03:07:00;98807.44;;;2.47;100.00
21817;BME280;13247;47.504;7.382;2024-01-30T03:09:45;98799.69;;;2.47;100.00
21817;BME280;13247;47.504;7.382;2024-01-30T03:12:30;98799.66;;;2.83;100.00
21817;BME280;13247;47.504;7.382;2024-01-30T03:15:15;98791.78;;;2.80;100.00
21817;BME280;13247;47.504;7.382;2024-01-30T03:17:59;98793.59;;;2.84;100.00
21817;BME280;13247;47.504;7.382;2024-01-30T03:20:44;98787.38;;;2.74;100.00
21817;BME280;13247;47.504;7.382;2024-01-30T03:23:29;98799.16;;;2.62;100.00
21817;BME280;13247;47.504;7.382;2024-01-30T03:26:13;98802.56;;;2.61;100.00
21817;BME280;13247;47.504;7.382;2024-01-30T03:28:59;98804.66;;;2.77;100.00
21817;BME280;13247;47.504;7.382;2024-01-30T03:31:44;98796.19;;;2.82;100.00
21817;BME280;13247;47.504;7.382;2024-01-30T03:34:29;98795.06;;;2.73;100.00
21817;BME280;13247;47.504;7.382;2024-01-30T03:37:14;98800.91;;;2.64;100.00
21817;BME280;13247;47.504;7.382;2024-01-30T03:39:58;98797.78;;;2.77;100.00
21817;BME280;13247;47.504;7.382;2024-01-30T03:42:43;98807.25;;;2.77;100.00
21817;BME280;13247;47.504;7.382;2024-01-30T03:45:27;98807.84;;;2.64;100.00
21817;BME280;13247;47.504;7.382;2024-01-30T03:48:12;98809.44;;;2.60;100.00
21817;BME280;13247;47.504;7.382;2024-01-30T03:50:56;98812.28;;;2.71;100.00
21817;BME280;13247;47.504;7.382;2024-01-30T03:53:41;98800.38;;;2.77;100.00
21817;BME280;13247;47.504;7.382;2024-01-30T03:56:26;98806.31;;;2.73;100.00
21817;BME280;13247;47.504;7.382;2024-01-30T03:59:11;98810.38;;;2.62;100.00
21817;BME280;13247;47.504;7.382;2024-01-30T04:01:55;98816.66;;;2.72;100.00
21817;BME280;13247;47.504;7.382;2024-01-30T04:04:40;98818.09;;;2.59;100.00
21817;BME280;13247;47.504;7.382;2024-01-30T04:07:24;98827.84;;;2.71;100.00
21817;BME280;13247;47.504;7.382;2024-01-30T04:10:10;98820.25;;;2.78;100.00
21817;BME280;13247;47.504;7.382;2024-01-30T04:12:55;98819.03;;;2.64;100.00
21817;BME280;13247;47.504;7.382;2024-01-30T04:15:40;98806.59;;;2.85;100.00
21817;BME280;13247;47.504;7.382;2024-01-30T04:18:25;98812.75;;;2.90;100.00
21817;BME280;13247;47.504;7.382;2024-01-30T04:21:09;98805.78;;;2.88;100.00
21817;BME280;13247;47.504;7.382;2024-01-30T04:23:54;98802.88;;;3.13;100.00
21817;BME280;13247;47.504;7.382;2024-01-30T04:26:38;98794.03;;;3.02;100.00
21817;BME280;13247;47.504;7.382;2024-01-30T04:29:23;98799.13;;;2.99;100.00
21817;BME280;13247;47.504;7.382;2024-01-30T04:32:08;98797.19;;;2.89;100.00
21817;BME280;13247;47.504;7.382;2024-01-30T04:34:54;98806.50;;;2.81;100.00
21817;BME280;13247;47.504;7.382;2024-01-30T04:37:38;98812.72;;;2.89;100.00
21817;BME280;13247;47.504;7.382;2024-01-30T04:40:23;98813.56;;;2.89;100.00
21817;BME280;13247;47.504;7.382;2024-01-30T04:43:08;98817.22;;;2.60;100.00
21817;BME280;13247;47.504;7.382;2024-01-30T04:45:52;98827.13;;;2.41;100.00
21817;BME280;13247;47.504;7.382;2024-01-30T04:48:37;98835.56;;;2.33;100.00
21817;BME280;13247;47.504;7.382;2024-01-30T04:51:23;98839.59;;;2.22;100.00
21817;BME280;13247;47.504;7.382;2024-01-30T04:54:07;98841.22;;;2.19;100.00
21817;BME280;13247;47.504;7.382;2024-01-30T04:56:52;98845.81;;;2.30;100.00
21817;BME280;13247;47.504;7.382;2024-01-30T04:59:36;98842.47;;;2.34;100.00
21817;BME280;13247;47.504;7.382;2024-01-30T05:02:21;98849.66;;;2.45;100.00
21817;BME280;13247;47.504;7.382;2024-01-30T05:05:06;98844.47;;;2.45;100.00
21817;BME280;13247;47.504;7.382;2024-01-30T05:07:50;98844.00;;;2.61;100.00
21817;BME280;13247;47.504;7.382;2024-01-30T05:10:35;98844.69;;;2.54;100.00
21817;BME280;13247;47.504;7.382;2024-01-30T05:13:20;98842.59;;;2.75;100.00
21817;BME280;13247;47.504;7.382;2024-01-30T05:16:04;98843.94;;;2.58;100.00
21817;BME280;13247;47.504;7.382;2024-01-30T05:18:49;98848.44;;;2.66;100.00
21817;BME280;13247;47.504;7.382;2024-01-30T05:21:34;98841.81;;;2.79;100.00
21817;BME280;13247;47.504;7.382;2024-01-30T05:24:18;98834.66;;;3.04;100.00
21817;BME280;13247;47.504;7.382;2024-01-30T05:27:03;98838.91;;;3.01;100.00
21817;BME280;13247;47.504;7.382;2024-01-30T05:29:47;98831.00;;;2.95;100.00
21817;BME280;13247;47.504;7.382;2024-01-30T05:32:32;98840.50;;;2.96;100.00
21817;BME280;13247;47.504;7.382;2024-01-30T05:35:16;98846.22;;;3.18;100.00
21817;BME280;13247;47.504;7.382;2024-01-30T05:38:00;98844.59;;;2.85;100.00
21817;BME280;13247;47.504;7.382;2024-01-30T05:40:45;98841.50;;;3.02;100.00
21817;BME280;13247;47.504;7.382;2024-01-30T05:43:30;98841.91;;;2.82;100.00
21817;BME280;13247;47.504;7.382;2024-01-30T05:46:15;98845.16;;;2.73;100.00
21817;BME280;13247;47.504;7.382;2024-01-30T05:48:59;98838.31;;;2.75;100.00
21817;BME280;13247;47.504;7.382;2024-01-30T05:51:44;98840.00;;;2.75;100.00
21817;BME280;13247;47.504;7.382;2024-01-30T05:54:29;98848.63;;;2.74;100.00
21817;BME280;13247;47.504;7.382;2024-01-30T05:57:13;98843.56;;;2.78;100.00
21817;BME280;13247;47.504;7.382;2024-01-30T05:59:58;98858.72;;;2.62;100.00
21817;BME280;13247;47.504;7.382;2024-01-30T06:02:42;98844.69;;;2.54;100.00
21817;BME280;13247;47.504;7.382;2024-01-30T06:05:27;98869.34;;;2.38;100.00
21817;BME280;13247;47.504;7.382;2024-01-30T06:08:11;98864.84;;;2.67;100.00
21817;BME280;13247;47.504;7.382;2024-01-30T06:10:56;98854.16;;;2.17;100.00
21817;BME280;13247;47.504;7.382;2024-01-30T06:13:40;98881.28;;;2.00;100.00
21817;BME280;13247;47.504;7.382;2024-01-30T06:16:25;98862.97;;;2.25;100.00
21817;BME280;13247;47.504;7.382;2024-01-30T06:19:14;98872.03;;;2.10;100.00
21817;BME280;13247;47.504;7.382;2024-01-30T06:21:58;98881.00;;;2.22;100.00
21817;BME280;13247;47.504;7.382;2024-01-30T06:24:44;98881.41;;;2.39;100.00
21817;BME280;13247;47.504;7.382;2024-01-30T06:27:38;98883.69;;;2.25;100.00
21817;BME280;13247;47.504;7.382;2024-01-30T06:30:22;98875.81;;;2.22;100.00
21817;BME280;13247;47.504;7.382;2024-01-30T06:33:07;98875.22;;;2.32;100.00
21817;BME280;13247;47.504;7.382;2024-01-30T06:35:52;98880.47;;;2.35;100.00
21817;BME280;13247;47.504;7.382;2024-01-30T06:38:36;98876.34;;;2.42;100.00
21817;BME280;13247;47.504;7.382;2024-01-30T06:41:21;98873.66;;;2.73;100.00
21817;BME280;13247;47.504;7.382;2024-01-30T06:44:06;98877.75;;;2.64;100.00
21817;BME280;13247;47.504;7.382;2024-01-30T06:46:52;98875.97;;;2.63;100.00
21817;BME280;13247;47.504;7.382;2024-01-30T06:49:37;98871.22;;;2.45;100.00
21817;BME280;13247;47.504;7.382;2024-01-30T06:52:22;98883.06;;;2.35;100.00
21817;BME280;13247;47.504;7.382;2024-01-30T06:55:07;98886.81;;;2.47;100.00
21817;BME280;13247;47.504;7.382;2024-01-30T06:57:52;98877.13;;;2.39;100.00
21817;BME280;13247;47.504;7.382;2024-01-30T07:00:37;98883.16;;;2.38;100.00
21817;BME280;13247;47.504;7.382;2024-01-30T07:03:21;98882.56;;;2.50;100.00
21817;BME280;13247;47.504;7.382;2024-01-30T07:06:07;98889.59;;;2.56;100.00
21817;BME280;13247;47.504;7.382;2024-01-30T07:08:51;98890.59;;;2.61;100.00
21817;BME280;13247;47.504;7.382;2024-01-30T07:11:36;98887.44;;;2.38;100.00
21817;BME280;13247;47.504;7.382;2024-01-30T07:14:20;98889.47;;;2.17;100.00
21817;BME280;13247;47.504;7.382;2024-01-30T07:17:05;98885.41;;;1.94;100.00
21817;BME280;13247;47.504;7.382;2024-01-30T07:19:50;98896.53;;;1.91;100.00
21817;BME280;13247;47.504;7.382;2024-01-30T07:22:35;98904.75;;;2.08;100.00
21817;BME280;13247;47.504;7.382;2024-01-30T07:25:20;98902.38;;;1.84;100.00
21817;BME280;13247;47.504;7.382;2024-01-30T07:28:06;98904.38;;;2.25;100.00
21817;BME280;13247;47.504;7.382;2024-01-30T07:30:51;98902.38;;;2.15;100.00
21817;BME280;13247;47.504;7.382;2024-01-30T07:33:35;98905.78;;;2.14;100.00
21817;BME280;13247;47.504;7.382;2024-01-30T07:36:20;98907.38;;;2.09;100.00
21817;BME280;13247;47.504;7.382;2024-01-30T07:39:05;98905.16;;;2.23;100.00
21817;BME280;13247;47.504;7.382;2024-01-30T07:41:49;98916.91;;;2.10;100.00
21817;BME280;13247;47.504;7.382;2024-01-30T07:44:34;98920.78;;;2.26;100.00
21817;BME280;13247;47.504;7.382;2024-01-30T07:47:19;98920.06;;;2.31;100.00
21817;BME280;13247;47.504;7.382;2024-01-30T07:50:04;98931.06;;;2.24;100.00
21817;BME280;13247;47.504;7.382;2024-01-30T07:52:49;98924.78;;;2.48;100.00
21817;BME280;13247;47.504;7.382;2024-01-30T07:55:35;98934.16;;;2.43;100.00
21817;BME280;13247;47.504;7.382;2024-01-30T07:58:20;98931.97;;;2.58;100.00
21817;BME280;13247;47.504;7.382;2024-01-30T08:01:05;98934.56;;;2.58;100.00
21817;BME280;13247;47.504;7.382;2024-01-30T08:03:49;98936.22;;;2.56;100.00
21817;BME280;13247;47.504;7.382;2024-01-30T08:06:34;98931.78;;;2.52;100.00
21817;BME280;13247;47.504;7.382;2024-01-30T08:09:18;98938.78;;;2.56;100.00
21817;BME280;13247;47.504;7.382;2024-01-30T08:12:03;98935.28;;;2.86;100.00
21817;BME280;13247;47.504;7.382;2024-01-30T08:14:48;98940.81;;;2.66;100.00
21817;BME280;13247;47.504;7.382;2024-01-30T08:17:32;98933.94;;;3.02;100.00
21817;BME280;13247;47.504;7.382;2024-01-30T08:20:17;98933.63;;;2.90;100.00
21817;BME280;13247;47.504;7.382;2024-01-30T08:23:02;98938.81;;;2.90;100.00
21817;BME280;13247;47.504;7.382;2024-01-30T08:25:47;98927.91;;;3.03;100.00
21817;BME280;13247;47.504;7.382;2024-01-30T08:28:32;98929.56;;;2.99;100.00
21817;BME280;13247;47.504;7.382;2024-01-30T08:31:16;98930.78;;;3.15;100.00
21817;BME280;13247;47.504;7.382;2024-01-30T08:34:01;98928.56;;;2.94;100.00
21817;BME280;13247;47.504;7.382;2024-01-30T08:36:46;98914.44;;;3.19;100.00
21817;BME280;13247;47.504;7.382;2024-01-30T08:39:30;98925.94;;;3.30;100.00
21817;BME280;13247;47.504;7.382;2024-01-30T08:42:15;98921.53;;;3.26;100.00
21817;BME280;13247;47.504;7.382;2024-01-30T08:45:02;98921.22;;;3.50;100.00
21817;BME280;13247;47.504;7.382;2024-01-30T08:47:49;98922.31;;;3.22;100.00
21817;BME280;13247;47.504;7.382;2024-01-30T08:50:33;98935.09;;;3.52;100.00
21817;BME280;13247;47.504;7.382;2024-01-30T08:53:19;98930.06;;;3.59;100.00
21817;BME280;13247;47.504;7.382;2024-01-30T08:56:05;98924.41;;;3.78;100.00
21817;BME280;13247;47.504;7.382;2024-01-30T08:58:50;98929.25;;;4.04;100.00
21817;BME280;13247;47.504;7.382;2024-01-30T09:01:34;98929.03;;;3.93;100.00
21817;BME280;13247;47.504;7.382;2024-01-30T09:04:19;98924.91;;;4.01;100.00
21817;BME280;13247;47.504;7.382;2024-01-30T09:07:03;98917.66;;;4.30;100.00
21817;BME280;13247;47.504;7.382;2024-01-30T09:09:50;98918.03;;;4.51;100.00
21817;BME280;13247;47.504;7.382;2024-01-30T09:12:35;98925.59;;;5.42;100.00
21817;BME280;13247;47.504;7.382;2024-01-30T09:15:19;98922.97;;;4.84;100.00
21817;BME280;13247;47.504;7.382;2024-01-30T09:18:05;98915.28;;;4.91;100.00
21817;BME280;13247;47.504;7.382;2024-01-30T09:20:50;98917.97;;;4.99;100.00
21817;BME280;13247;47.504;7.382;2024-01-30T09:23:34;98929.63;;;4.22;100.00
21817;BME280;13247;47.504;7.382;2024-01-30T09:26:19;98939.06;;;4.18;100.00
21817;BME280;13247;47.504;7.382;2024-01-30T09:29:04;98939.34;;;4.33;100.00
21817;BME280;13247;47.504;7.382;2024-01-30T09:31:49;98935.81;;;4.76;100.00
21817;BME280;13247;47.504;7.382;2024-01-30T09:34:33;98932.03;;;4.59;100.00
21817;BME280;13247;47.504;7.382;2024-01-30T09:37:18;98926.84;;;4.59;100.00
21817;BME280;13247;47.504;7.382;2024-01-30T09:40:02;98939.19;;;4.72;100.00
21817;BME280;13247;47.504;7.382;2024-01-30T09:42:51;98931.84;;;4.96;100.00
21817;BME280;13247;47.504;7.382;2024-01-30T09:45:35;98925.84;;;4.52;100.00
21817;BME280;13247;47.504;7.382;2024-01-30T09:48:21;98940.38;;;4.91;100.00
21817;BME280;13247;47.504;7.382;2024-01-30T09:51:06;98938.03;;;5.06;100.00
21817;BME280;13247;47.504;7.382;2024-01-30T09:53:52;98938.47;;;5.34;100.00
21817;BME280;13247;47.504;7.382;2024-01-30T09:56:38;98923.69;;;5.30;100.00
21817;BME280;13247;47.504;7.382;2024-01-30T09:59:22;98928.06;;;5.33;100.00
21817;BME280;13247;47.504;7.382;2024-01-30T10:02:07;98932.53;;;5.41;100.00
21817;BME280;13247;47.504;7.382;2024-01-30T10:04:53;98935.06;;;5.37;100.00
21817;BME280;13247;47.504;7.382;2024-01-30T10:07:38;98932.00;;;5.67;100.00
21817;BME280;13247;47.504;7.382;2024-01-30T10:10:23;98917.25;;;5.66;100.00
21817;BME280;13247;47.504;7.382;2024-01-30T10:13:11;98935.28;;;5.53;100.00
21817;BME280;13247;47.504;7.382;2024-01-30T10:15:56;98923.31;;;5.66;100.00
21817;BME280;13247;47.504;7.382;2024-01-30T10:18:42;98925.38;;;5.87;100.00
21817;BME280;13247;47.504;7.382;2024-01-30T10:21:27;98919.38;;;5.91;100.00
21817;BME280;13247;47.504;7.382;2024-01-30T10:24:12;98921.16;;;5.98;100.00
21817;BME280;13247;47.504;7.382;2024-01-30T10:26:58;98921.44;;;6.20;100.00
21817;BME280;13247;47.504;7.382;2024-01-30T10:29:43;98918.16;;;6.37;100.00
21817;BME280;13247;47.504;7.382;2024-01-30T10:32:27;98918.25;;;6.49;100.00
21817;BME280;13247;47.504;7.382;2024-01-30T10:35:12;98904.50;;;6.63;100.00
21817;BME280;13247;47.504;7.382;2024-01-30T10:37:57;98916.78;;;6.76;100.00
21817;BME280;13247;47.504;7.382;2024-01-30T10:40:45;98918.66;;;6.89;100.00
21817;BME280;13247;47.504;7.382;2024-01-30T10:43:35;98911.88;;;7.09;100.00
21817;BME280;13247;47.504;7.382;2024-01-30T10:46:30;98909.38;;;7.28;100.00
21817;BME280;13247;47.504;7.382;2024-01-30T10:49:17;98912.03;;;7.35;100.00
21817;BME280;13247;47.504;7.382;2024-01-30T10:52:05;98901.66;;;7.44;100.00
21817;BME280;13247;47.504;7.382;2024-01-30T10:54:51;98898.28;;;7.60;100.00
21817;BME280;13247;47.504;7.382;2024-01-30T10:57:37;98892.22;;;7.64;100.00
21817;BME280;13247;47.504;7.382;2024-01-30T11:00:21;98896.63;;;7.74;100.00
21817;BME280;13247;47.504;7.382;2024-01-30T11:03:08;98892.34;;;7.91;100.00
21817;BME280;13247;47.504;7.382;2024-01-30T11:05:53;98878.47;;;8.00;100.00
21817;BME280;13247;47.504;7.382;2024-01-30T11:08:38;98879.38;;;8.20;100.00
21817;BME280;13247;47.504;7.382;2024-01-30T11:11:23;98878.56;;;8.33;100.00
21817;BME280;13247;47.504;7.382;2024-01-30T11:14:09;98877.72;;;8.55;100.00
21817;BME280;13247;47.504;7.382;2024-01-30T11:16:58;98874.28;;;8.73;100.00
21817;BME280;13247;47.504;7.382;2024-01-30T11:19:43;98874.28;;;8.88;100.00
21817;BME280;13247;47.504;7.382;2024-01-30T11:22:31;98874.28;;;8.93;100.00
21817;BME280;13247;47.504;7.382;2024-01-30T11:25:16;98869.03;;;9.11;100.00
21817;BME280;13247;47.504;7.382;2024-01-30T11:28:02;98861.16;;;9.23;100.00
21817;BME280;13247;47.504;7.382;2024-01-30T11:30:47;98856.78;;;9.41;100.00
21817;BME280;13247;47.504;7.382;2024-01-30T11:33:35;98857.59;;;9.51;100.00
21817;BME280;13247;47.504;7.382;2024-01-30T11:36:25;98852.31;;;9.66;100.00
21817;BME280;13247;47.504;7.382;2024-01-30T11:39:10;98852.28;;;9.78;100.00
21817;BME280;13247;47.504;7.382;2024-01-30T11:41:55;98848.75;;;9.88;100.00
21817;BME280;13247;47.504;7.382;2024-01-30T11:44:40;98855.72;;;9.92;100.00
21817;BME280;13247;47.504;7.382;2024-01-30T11:47:25;98850.38;;;10.07;100.00
21817;BME280;13247;47.504;7.382;2024-01-30T11:50:09;98839.06;;;10.13;100.00
21817;BME280;13247;47.504;7.382;2024-01-30T11:52:55;98830.19;;;10.37;100.00
21817;BME280;13247;47.504;7.382;2024-01-30T11:55:40;98824.00;;;10.44;100.00
21817;BME280;13247;47.504;7.382;2024-01-30T11:58:28;98831.09;;;10.28;100.00
21817;BME280;13247;47.504;7.382;2024-01-30T12:01:12;98820.59;;;10.30;100.00
21817;BME280;13247;47.504;7.382;2024-01-30T12:03:58;98821.47;;;10.27;100.00
21817;BME280;13247;47.504;7.382;2024-01-30T12:06:43;98810.91;;;10.38;100.00
21817;BME280;13247;47.504;7.382;2024-01-30T12:09:28;98810.88;;;10.45;100.00
21817;BME280;13247;47.504;7.382;2024-01-30T12:12:12;98809.91;;;10.60;100.00
21817;BME280;13247;47.504;7.382;2024-01-30T12:14:59;98808.28;;;10.41;100.00
21817;BME280;13247;47.504;7.382;2024-01-30T12:17:43;98803.72;;;10.68;100.00
21817;BME280;13247;47.504;7.382;2024-01-30T12:20:28;98796.69;;;10.69;100.00
21817;BME280;13247;47.504;7.382;2024-01-30T12:23:13;98803.75;;;10.64;100.00
21817;BME280;13247;47.504;7.382;2024-01-30T12:25:58;98788.69;;;10.84;100.00
21817;BME280;13247;47.504;7.382;2024-01-30T12:28:50;98785.06;;;10.97;100.00
21817;BME280;13247;47.504;7.382;2024-01-30T12:31:34;98778.88;;;11.04;100.00
21817;BME280;13247;47.504;7.382;2024-01-30T12:34:19;98786.72;;;11.05;100.00
21817;BME280;13247;47.504;7.382;2024-01-30T12:37:05;98785.00;;;11.06;100.00
21817;BME280;13247;47.504;7.382;2024-01-30T12:39:54;98791.94;;;11.10;100.00
21817;BME280;13247;47.504;7.382;2024-01-30T12:42:39;98784.09;;;11.09;100.00
21817;BME280;13247;47.504;7.382;2024-01-30T12:45:25;98786.66;;;11.12;100.00
21817;BME280;13247;47.504;7.382;2024-01-30T12:48:10;98785.69;;;11.23;100.00
21817;BME280;13247;47.504;7.382;2024-01-30T12:50:55;98782.81;;;11.43;100.00
21817;BME280;13247;47.504;7.382;2024-01-30T12:53:40;98781.06;;;11.43;100.00
21817;BME280;13247;47.504;7.382;2024-01-30T12:56:25;98784.53;;;11.48;100.00
21817;BME280;13247;47.504;7.382;2024-01-30T12:59:09;98785.63;;;11.28;100.00
21817;BME280;13247;47.504;7.382;2024-01-30T13:01:54;98775.72;;;11.52;100.00
21817;BME280;13247;47.504;7.382;2024-01-30T13:04:39;98780.84;;;11.63;100.00
21817;BME280;13247;47.504;7.382;2024-01-30T13:07:24;98770.28;;;11.69;100.00
21817;BME280;13247;47.504;7.382;2024-01-30T13:10:09;98773.81;;;11.62;100.00
21817;BME280;13247;47.504;7.382;2024-01-30T13:12:54;98775.88;;;11.40;100.00
21817;BME280;13247;47.504;7.382;2024-01-30T13:15:39;98764.13;;;11.71;100.00
21817;BME280;13247;47.504;7.382;2024-01-30T13:18:23;98761.66;;;11.56;100.00
21817;BME280;13247;47.504;7.382;2024-01-30T13:21:07;98754.88;;;11.37;100.00
21817;BME280;13247;47.504;7.382;2024-01-30T13:23:52;98756.06;;;11.83;100.00
21817;BME280;13247;47.504;7.382;2024-01-30T13:26:38;98757.47;;;11.39;100.00
21817;BME280;13247;47.504;7.382;2024-01-30T13:29:24;98753.06;;;11.42;100.00
21817;BME280;13247;47.504;7.382;2024-01-30T13:32:08;98757.34;;;11.51;100.00
21817;BME280;13247;47.504;7.382;2024-01-30T13:34:53;98758.00;;;11.69;100.00
21817;BME280;13247;47.504;7.382;2024-01-30T13:37:37;98759.53;;;11.86;100.00
21817;BME280;13247;47.504;7.382;2024-01-30T13:40:22;98762.19;;;11.84;100.00
21817;BME280;13247;47.504;7.382;2024-01-30T13:43:07;98760.94;;;12.11;100.00
21817;BME280;13247;47.504;7.382;2024-01-30T13:45:52;98761.34;;;11.82;100.00
21817;BME280;13247;47.504;7.382;2024-01-30T13:48:37;98751.34;;;12.07;100.00
21817;BME280;13247;47.504;7.382;2024-01-30T13:51:21;98750.72;;;11.90;100.00
21817;BME280;13247;47.504;7.382;2024-01-30T13:54:06;98757.72;;;11.89;100.00
21817;BME280;13247;47.504;7.382;2024-01-30T13:56:51;98753.38;;;11.88;100.00
21817;BME280;13247;47.504;7.382;2024-01-30T13:59:37;98753.66;;;11.67;100.00
21817;BME280;13247;47.504;7.382;2024-01-30T14:02:22;98753.72;;;11.58;100.00
21817;BME280;13247;47.504;7.382;2024-01-30T14:05:07;98758.78;;;11.77;100.00
21817;BME280;13247;47.504;7.382;2024-01-30T14:07:55;98753.28;;;11.94;100.00
21817;BME280;13247;47.504;7.382;2024-01-30T14:10:40;98749.63;;;12.06;100.00
21817;BME280;13247;47.504;7.382;2024-01-30T14:13:25;98761.84;;;12.10;100.00
21817;BME280;13247;47.504;7.382;2024-01-30T14:16:09;98771.03;;;11.80;100.00
21817;BME280;13247;47.504;7.382;2024-01-30T14:18:54;98781.69;;;11.65;100.00
21817;BME280;13247;47.504;7.382;2024-01-30T14:21:39;98769.69;;;12.11;100.00
21817;BME280;13247;47.504;7.382;2024-01-30T14:24:23;98779.72;;;11.83;100.00
21817;BME280;13247;47.504;7.382;2024-01-30T14:27:08;98771.19;;;11.63;100.00
21817;BME280;13247;47.504;7.382;2024-01-30T14:29:53;98774.78;;;11.56;100.00
21817;BME280;13247;47.504;7.382;2024-01-30T14:32:37;98767.03;;;12.13;100.00